Angelina County Airport
KLFK : now visible

Airfield :











YOU CAN JOIN US ON...

 
LOGIN :

Register | Disclaimer

   EN    FR    IT 

 









Legend :    VFR   Marginal VFR   IFR   Intensive IFR   Very Intensive IFR
Visi :
Ceiling :
>= 8 km
>= 3000ft
5 to 8 km
1000 to 3000 ft
1500m to 5 km
500 to 1000 ft
800 to 1500m
200 to 500 ft
< 800m
< 200 ft
Symbols :   Thunderstorms  Fog  Heavy snow  Heavy precipitations  Wind > 20 kt






- Airport Elevation : 296 ft


KLFK - Angelina County

CURRENT METAR :
  • 291353Z AUTO 29007KT 10SM OVC010 07/04 A2998 RMK AO2 SLP150 T00670044

EXPIRED METARs :
  • 291253Z AUTO 29007KT 10SM OVC012 07/04 A2995 RMK AO2 SLP141 T00670039
  • 291227Z AUTO 31007KT 10SM OVC014 07/04 A2994 RMK AO2 T00670039
  • 291153Z AUTO 30008KT 10SM OVC017 07/03 A2993 RMK AO2 SLP134 70044 T00720033 10094 20072 53012

TAF KLFK
Valid from the 29 at 12:00 until the 30 at 12:00 UTC


291120Z 2912/3012 31006KT P6SM OVC018
FM291500 32008KT P6SM OVC009
FM291900 33010G16KT P6SM BKN015 OVC025
FM300000 35006KT P6SM OVC015
FM300700 02003KT P6SM OVC010



MET'MAP, your aeronautical weather chart ! - Copyright ORBIFLY December 2007 - Disclaimer

ORBIFLY MET'MAP TEAM :

Programming & Development : Alexandra Zaïnal
Concept & original design : Baudouin d'Aumeries
Assistance for programming : Marc-Olivier Méhu
Technical & hardware support : Manuel Goepfert

Contact : metmap@orbifly.com




SOURCES & CREDITS :

   NOAA       Earth
Advisory